Time;durP1;ratioP1;P1;durP2;ratioP2;P2;SDS_P1;SDS_P2;PMS_P1;PMS_P2;Temp;Humidity;BMP_temperature;BMP_pressure;BME280_temperature;BME280_humidity;BME280_pressure;Samples;Min_cycle;Max_cycle;Signal;HPM_P1;HPM_P2
2022/09/05 00:03:29;;;;;;;7.60;6.75;;;;;;;17.47;92.89;101074.69;2736873;85;21062;-93
2022/09/05 00:08:12;;;;;;;8.15;6.15;;;;;;;17.53;92.67;101078.14;2753457;84;21427;-92
2022/09/05 00:12:34;;;;;;;6.60;6.00;;;;;;;17.57;92.24;101071.94;2723811;85;21063;-91
2022/09/05 00:17:20;;;;;;;5.00;4.60;;;;;;;17.58;91.91;101079.00;2740508;85;21614;-92
2022/09/05 00:22:10;;;;;;;9.87;7.30;;;;;;;17.56;91.68;101078.31;2603138;90;21144;-92
2022/09/05 00:26:50;;;;;;;7.03;6.30;;;;;;;17.54;91.93;101074.93;2498173;92;21333;-91
2022/09/05 00:31:18;;;;;;;7.90;7.03;;;;;;;17.53;92.37;101072.76;2494251;93;21087;-93
2022/09/05 00:35:58;;;;;;;8.05;6.72;;;;;;;17.47;92.48;101065.80;2576872;90;21142;-92
2022/09/05 00:40:51;;;;;;;8.95;6.00;;;;;;;17.40;92.96;101064.20;2496875;94;21089;-92
2022/09/05 00:45:24;;;;;;;7.28;6.65;;;;;;;17.27;93.92;101066.75;2572995;91;21189;-91
2022/09/05 00:49:58;;;;;;;8.13;7.33;;;;;;;17.18;93.72;101062.77;2575803;91;21193;-92
2022/09/05 00:54:56;;;;;;;9.00;5.20;;;;;;;17.17;93.85;101067.80;2560722;89;21141;-91
2022/09/05 01:00:03;;;;;;;7.60;5.85;;;;;;;17.18;93.75;101072.18;2607031;89;21110;-90
2022/09/05 01:04:50;;;;;;;7.92;7.08;;;;;;;17.16;94.00;101076.86;2710630;86;21181;-92
2022/09/05 01:09:55;;;;;;;8.30;5.75;;;;;;;17.15;94.01;101077.37;2751949;86;21077;-92
2022/09/05 01:14:51;;;;;;;7.45;6.20;;;;;;;17.17;93.84;101074.04;2730505;85;21112;-91
2022/09/05 01:19:47;;;;;;;8.80;5.65;;;;;;;17.15;93.65;101086.79;2759606;85;21061;-91
2022/09/05 01:24:21;;;;;;;7.15;5.90;;;;;;;17.13;93.54;101082.06;2721811;85;21077;-91
2022/09/05 01:28:52;;;;;;;14.63;5.75;;;;;;;17.10;93.97;101083.70;2733353;85;21069;-91
2022/09/05 01:33:49;;;;;;;6.78;5.28;;;;;;;17.03;94.05;101082.11;2735885;85;21102;-91
2022/09/05 01:38:21;;;;;;;;;;;;;;;16.94;94.37;101087.84;2735183;85;21115;-92
2022/09/05 01:42:59;;;;;;;7.05;6.40;;;;;;;16.85;94.84;101083.34;2725797;85;20181;-89
2022/09/05 01:47:48;;;;;;;6.97;6.25;;;;;;;16.78;95.32;101083.59;2733699;85;21084;-90
2022/09/05 01:52:19;;;;;;;9.33;6.55;;;;;;;16.74;95.47;101086.23;2683144;86;21104;-90
2022/09/05 01:57:04;;;;;;;12.20;7.80;;;;;;;16.70;95.91;101086.53;2695834;86;21040;-91
2022/09/05 02:01:41;;;;;;;8.55;5.67;;;;;;;16.65;95.92;101088.78;2685470;87;21106;-90
2022/09/05 02:06:34;;;;;;;10.90;9.23;;;;;;;16.61;96.56;101090.08;2684157;87;21218;-91
2022/09/05 02:11:07;;;;;;;12.10;7.62;;;;;;;16.52;97.47;101085.59;2570684;90;21090;-91
2022/09/05 02:15:38;;;;;;;7.80;7.00;;;;;;;16.44;98.18;101082.28;2557007;91;21155;-92
2022/09/05 02:20:12;;;;;;;7.00;5.78;;;;;;;16.43;98.17;101092.67;2574459;91;21098;-92
2022/09/05 02:24:44;;;;;;;10.00;6.47;;;;;;;16.40;98.34;101092.45;2560380;89;21184;-91
2022/09/05 02:29:18;;;;;;;7.67;6.08;;;;;;;16.38;98.86;101096.27;2596271;88;21086;-91
2022/09/05 02:33:55;;;;;;;9.55;6.42;;;;;;;16.33;99.37;101096.72;2600230;90;21115;-92
2022/09/05 02:38:43;;;;;;;9.18;8.20;;;;;;;16.35;99.54;101098.77;2600540;89;21105;-93
2022/09/05 02:43:30;;;;;;;8.38;7.08;;;;;;;16.33;100.00;101090.48;2538826;92;21115;-93
2022/09/05 02:47:55;;;;;;;9.33;6.70;;;;;;;16.31;100.00;101088.45;2601051;89;21138;-93
2022/09/05 02:52:18;;;;;;;8.08;6.28;;;;;;;16.32;100.00;101082.95;2626764;89;21136;-91
2022/09/05 02:56:54;;;;;;;10.05;7.65;;;;;;;16.34;100.00;101088.16;2614584;89;21476;-93
2022/09/05 03:01:26;;;;;;;;;;;;;;;16.36;100.00;101093.74;2626293;89;21114;-91
2022/09/05 03:06:00;;;;;;;10.85;6.90;;;;;;;16.41;100.00;101101.37;2618948;89;20525;-93
2022/09/05 03:10:42;;;;;;;9.38;6.92;;;;;;;16.44;100.00;101098.88;2690409;84;21042;-94
2022/09/05 03:15:28;;;;;;;9.28;6.92;;;;;;;16.47;100.00;101099.92;2762799;84;21030;-91
2022/09/05 03:20:31;;;;;;;10.08;8.68;;;;;;;16.51;100.00;101108.90;2763367;84;21105;-93
2022/09/05 03:25:08;;;;;;;13.65;9.68;;;;;;;16.51;100.00;101112.09;2751333;84;21051;-94
2022/09/05 03:30:11;;;;;;;10.32;7.03;;;;;;;16.55;99.85;101118.86;2793619;83;21109;-95
2022/09/05 03:34:39;;;;;;;8.55;7.75;;;;;;;16.57;99.68;101122.25;2770669;84;21147;-93
2022/09/05 03:39:39;;;;;;;7.92;7.15;;;;;;;16.64;99.26;101120.66;2782072;84;21636;-92
2022/09/05 03:44:16;;;;;;;7.17;6.40;;;;;;;16.66;99.20;101127.25;2747050;84;21058;-94
2022/09/05 03:48:42;;;;;;;;;;;;;;;16.67;99.35;101128.43;2765352;84;21121;-94
2022/09/05 03:53:41;;;;;;;6.70;6.00;;;;;;;16.64;99.29;101125.20;2775302;84;20124;-94
2022/09/05 03:58:24;;;;;;;10.60;7.25;;;;;;;16.60;98.96;101125.13;2732598;86;21104;-94
2022/09/05 04:03:00;;;;;;;9.15;7.25;;;;;;;16.51;98.36;101121.50;2732240;85;21052;-92
2022/09/05 04:07:25;;;;;;;8.08;7.25;;;;;;;16.45;98.56;101122.05;2729546;86;21211;-91
2022/09/05 04:11:52;;;;;;;9.95;7.97;;;;;;;16.41;99.11;101135.77;2717189;85;21076;-92
2022/09/05 04:16:31;;;;;;;14.03;8.15;;;;;;;16.39;99.54;101139.09;2748787;85;21107;-91
2022/09/05 04:21:14;;;;;;;8.55;7.42;;;;;;;16.36;99.56;101139.39;2740871;85;21387;-91
2022/09/05 04:26:20;;;;;;;11.90;8.30;;;;;;;16.34;100.00;101142.72;2740259;85;21051;-91
2022/09/05 04:30:48;;;;;;;8.58;7.55;;;;;;;16.32;100.00;101146.04;2740554;84;21098;-92
2022/09/05 04:35:34;;;;;;;10.30;7.58;;;;;;;16.38;99.61;101146.80;2729200;85;21094;-89
2022/09/05 04:39:53;;;;;;;8.23;7.35;;;;;;;16.41;99.50;101151.05;2725848;85;21090;-92
2022/09/05 04:44:17;;;;;;;8.58;7.70;;;;;;;16.45;99.23;101154.27;2759947;84;21043;-92
2022/09/05 04:49:05;;;;;;;11.83;9.35;;;;;;;16.48;99.27;101149.47;2725527;85;21074;-91
2022/09/05 04:53:39;;;;;;;7.92;7.17;;;;;;;16.51;98.81;101153.72;2733026;85;21035;-92
2022/09/05 04:58:25;;;;;;;9.05;8.15;;;;;;;16.56;98.52;101156.81;2683929;87;21082;-93
2022/09/05 05:02:48;;;;;;;11.60;7.53;;;;;;;16.56;98.20;101154.12;2747092;85;21095;-92
2022/09/05 05:07:29;;;;;;;10.98;8.53;;;;;;;16.56;98.41;101156.81;2730763;84;21064;-91
2022/09/05 05:12:00;;;;;;;9.48;7.58;;;;;;;16.67;98.15;101157.98;2695472;85;21114;-93
2022/09/05 05:16:30;;;;;;;12.53;8.28;;;;;;;17.02;97.89;101156.16;2723360;85;21061;-93
2022/09/05 05:21:06;;;;;;;10.78;9.10;;;;;;;17.43;94.27;101163.40;2724505;85;21769;-93
2022/09/05 05:25:26;;;;;;;15.13;8.95;;;;;;;17.53;92.01;101166.03;2717393;85;21055;-93
2022/09/05 05:30:03;;;;;;;12.82;10.82;;;;;;;17.49;91.55;101165.52;2691714;86;21085;-92
2022/09/05 05:34:32;;;;;;;10.78;9.05;;;;;;;17.41;91.73;101176.16;2642253;88;21132;-92
2022/09/05 05:38:57;;;;;;;10.43;8.53;;;;;;;17.48;91.79;101179.93;2674528;88;21062;-92
2022/09/05 05:43:22;;;;;;;11.60;9.28;;;;;;;17.80;90.25;101179.14;2667780;88;21074;-92
2022/09/05 05:47:48;;;;;;;9.78;8.78;;;;;;;17.79;88.65;101184.17;2764739;85;21142;-92
2022/09/05 05:52:40;;;;;;;11.73;9.70;;;;;;;17.87;86.83;101186.94;2751126;84;21149;-93
2022/09/05 05:57:31;;;;;;;10.90;8.20;;;;;;;17.93;86.76;101185.49;2727687;85;21074;-92
2022/09/05 06:02:01;;;;;;;15.43;8.83;;;;;;;17.98;86.34;101192.59;2733709;85;21107;-92
2022/09/05 06:06:57;;;;;;;9.15;7.53;;;;;;;18.19;85.83;101197.73;2728948;85;21042;-92
2022/09/05 06:12:15;;;;;;;9.18;8.28;;;;;;;18.47;84.94;101198.98;2752892;85;21094;-93
2022/09/05 06:16:58;;;;;;;16.32;10.38;;;;;;;18.76;82.54;101203.22;2762294;85;21649;-93
2022/09/05 06:22:02;;;;;;;9.88;8.55;;;;;;;18.86;81.22;101203.64;2745201;85;21142;-92
2022/09/05 06:26:50;;;;;;;12.03;8.85;;;;;;;18.79;81.56;101203.42;2707331;85;21111;-92
2022/09/05 06:31:22;;;;;;;10.28;8.28;;;;;;;18.58;82.34;101201.92;2669449;87;21147;-91
2022/09/05 06:35:53;;;;;;;10.38;9.25;;;;;;;18.25;82.83;101198.94;2659611;87;21087;-92
2022/09/05 06:40:39;;;;;;;9.23;8.05;;;;;;;18.15;85.03;101199.02;2666779;86;32271;-92
2022/09/05 06:45:32;;;;;;;8.47;7.63;;;;;;;18.06;84.70;101202.13;2688463;87;21118;-92
2022/09/05 06:50:10;;;;;;;8.70;8.05;;;;;;;18.06;85.36;101204.81;2754674;84;21012;-92
2022/09/05 06:55:08;;;;;;;9.93;7.87;;;;;;;18.11;84.86;101205.72;2719387;85;21588;-91
2022/09/05 06:59:48;;;;;;;10.15;8.10;;;;;;;18.15;85.87;101215.69;2735430;85;21020;-89
2022/09/05 07:04:32;;;;;;;10.32;8.45;;;;;;;18.24;86.10;101212.06;2760116;85;21709;-92
2022/09/05 07:09:26;;;;;;;10.45;7.12;;;;;;;18.40;84.44;101214.08;2767904;84;21642;-92
2022/09/05 07:14:26;;;;;;;9.10;6.37;;;;;;;18.79;84.94;101222.29;2684768;87;21028;-91
2022/09/05 07:19:27;;;;;;;20.92;8.15;;;;;;;18.98;80.64;101219.91;2685731;87;21205;-92
2022/09/05 07:24:07;;;;;;;11.10;7.62;;;;;;;19.05;81.99;101221.47;2692909;87;21721;-91
2022/09/05 07:28:29;;;;;;;11.40;7.62;;;;;;;19.27;80.82;101230.89;2685221;87;21040;-90
2022/09/05 07:32:54;;;;;;;9.80;8.10;;;;;;;19.32;80.78;101234.45;2659808;87;21097;-92
2022/09/05 07:37:20;;;;;;;;;;;;;;;19.29;82.41;101237.48;2693828;87;21066;-92
2022/09/05 07:41:44;;;;;;;8.40;6.03;;;;;;;19.31;82.29;101242.21;2666001;87;20260;-92
2022/09/05 07:46:22;;;;;;;10.63;7.45;;;;;;;19.46;83.99;101239.27;2644989;88;21646;-92
2022/09/05 07:50:57;;;;;;;12.33;7.65;;;;;;;19.70;81.83;101232.27;2662260;88;21062;-92
2022/09/05 07:55:28;;;;;;;10.98;7.83;;;;;;;19.80;79.22;101228.91;2738323;85;21099;-90
2022/09/05 07:59:53;;;;;;;7.00;6.33;;;;;;;20.06;80.03;101236.13;2724227;84;21127;-91
2022/09/05 08:04:35;;;;;;;7.72;7.03;;;;;;;20.41;77.56;101226.55;2733992;85;21079;-90
2022/09/05 08:09:11;;;;;;;15.50;11.97;;;;;;;20.77;76.54;101224.85;2757423;84;21082;-92
2022/09/05 08:13:55;;;;;;;12.68;8.68;;;;;;;21.11;75.23;101228.38;2733760;85;21625;-91
2022/09/05 08:18:48;;;;;;;10.48;9.43;;;;;;;21.39;74.57;101226.09;2726211;85;21036;-91
2022/09/05 08:23:26;;;;;;;7.37;6.67;;;;;;;21.57;71.87;101211.98;2715097;85;21102;-92
2022/09/05 08:28:19;;;;;;;8.73;6.55;;;;;;;21.63;72.04;101218.06;2716340;85;21055;-92
2022/09/05 08:32:59;;;;;;;90.75;58.60;;;;;;;21.61;70.59;101221.42;2770511;83;21054;-91
2022/09/05 08:37:26;;;;;;;17.40;11.93;;;;;;;21.45;71.84;101216.94;2712572;86;21042;-90
2022/09/05 08:41:59;;;;;;;18.62;16.67;;;;;;;21.46;71.77;101220.83;2675090;87;21074;-92
2022/09/05 08:46:30;;;;;;;12.18;10.98;;;;;;;21.61;70.51;101215.52;2679860;87;21057;-89
2022/09/05 08:50:58;;;;;;;10.00;7.72;;;;;;;21.65;71.59;101207.92;2689604;87;21086;-91
2022/09/05 08:55:54;;;;;;;8.55;7.65;;;;;;;21.72;70.91;101201.30;2733174;85;21043;-91
2022/09/05 09:00:18;;;;;;;10.88;5.85;;;;;;;21.81;70.37;101198.37;2768043;84;21042;-91
2022/09/05 09:04:49;;;;;;;15.93;6.90;;;;;;;21.96;70.93;101195.73;2747550;85;21082;-92
2022/09/05 09:09:17;;;;;;;10.58;7.12;;;;;;;22.00;70.73;101190.77;2746539;85;21079;-88
2022/09/05 09:13:57;;;;;;;9.23;7.40;;;;;;;21.86;70.17;101193.75;2749284;85;21090;-91
2022/09/05 09:18:20;;;;;;;6.95;6.10;;;;;;;21.67;70.12;101190.99;2778700;84;21462;-91
2022/09/05 09:23:05;;;;;;;6.95;5.78;;;;;;;21.45;71.14;101196.14;2742378;84;21236;-91
2022/09/05 09:28:11;;;;;;;9.27;7.30;;;;;;;21.53;70.95;101189.33;2682908;85;21110;-91
2022/09/05 09:32:38;;;;;;;10.03;6.22;;;;;;;21.62;71.62;101196.07;2681847;86;21716;-91
2022/09/05 09:37:10;;;;;;;10.88;6.40;;;;;;;21.78;70.16;101189.22;2674054;87;21617;-92
2022/09/05 09:41:47;;;;;;;6.28;5.42;;;;;;;21.93;69.58;101189.81;2682507;86;21126;-90
2022/09/05 09:46:17;;;;;;;6.92;6.17;;;;;;;21.93;68.88;101191.17;2667856;86;21094;-91
2022/09/05 09:51:17;;;;;;;5.60;5.03;;;;;;;22.00;70.33;101186.72;2679963;86;21086;-92
2022/09/05 09:56:15;;;;;;;8.43;5.83;;;;;;;22.23;67.86;101185.90;2673586;85;21066;-90
2022/09/05 10:01:01;;;;;;;7.25;4.42;;;;;;;22.30;67.20;101178.72;2683199;86;21155;-90
2022/09/05 10:05:45;;;;;;;5.97;5.28;;;;;;;22.35;66.73;101189.02;2735722;85;21062;-92
2022/09/05 10:10:13;;;;;;;18.00;5.87;;;;;;;22.39;65.73;101173.55;2720899;85;21103;-92
2022/09/05 10:14:50;;;;;;;7.75;4.95;;;;;;;22.74;64.14;101179.03;2733077;85;21087;-91
2022/09/05 10:19:49;;;;;;;7.50;5.10;;;;;;;22.81;63.79;101177.28;2733011;85;21059;-91
2022/09/05 10:24:23;;;;;;;5.70;3.87;;;;;;;22.91;65.23;101180.55;2762323;84;21109;-91
2022/09/05 10:29:01;;;;;;;6.15;3.95;;;;;;;23.24;61.75;101167.98;2733420;84;22728;-91
2022/09/05 10:33:32;;;;;;;5.75;4.50;;;;;;;23.42;61.42;101165.41;2763423;85;21110;-92
2022/09/05 10:38:10;;;;;;;4.30;3.92;;;;;;;23.53;60.41;101156.76;2718635;85;21091;-91
2022/09/05 10:42:42;;;;;;;13.68;5.35;;;;;;;23.48;60.34;101146.14;2723385;85;21103;-92
2022/09/05 10:47:35;;;;;;;6.05;5.45;;;;;;;23.44;61.70;101140.77;2736536;85;21048;-92
2022/09/05 10:52:21;;;;;;;5.45;4.53;;;;;;;23.50;61.63;101140.03;2732473;85;21122;-91
2022/09/05 10:56:51;;;;;;;5.67;3.80;;;;;;;23.46;61.14;101125.98;2740901;84;21195;-93
2022/09/05 11:01:45;;;;;;;4.67;4.28;;;;;;;23.59;61.17;101118.50;2740848;85;21043;-92
2022/09/05 11:06:10;;;;;;;11.83;5.83;;;;;;;23.75;61.90;101129.63;2754030;84;21082;-91
2022/09/05 11:10:49;;;;;;;8.00;4.43;;;;;;;23.90;61.22;101120.59;2752214;84;21126;-91
2022/09/05 11:15:32;;;;;;;5.00;4.47;;;;;;;23.96;60.69;101119.80;2718208;85;21082;-92
2022/09/05 11:20:18;;;;;;;6.00;3.65;;;;;;;24.04;59.41;101119.72;2735464;85;21085;-91
2022/09/05 11:25:00;;;;;;;4.83;3.93;;;;;;;24.17;58.45;101116.27;2589888;89;21661;-92
2022/09/05 11:29:25;;;;;;;4.33;3.40;;;;;;;24.42;59.08;101119.09;2627166;89;21700;-93
2022/09/05 11:34:18;;;;;;;3.55;3.25;;;;;;;24.47;58.01;101109.81;2600022;89;21108;-90
2022/09/05 11:39:14;;;;;;;4.62;3.42;;;;;;;24.43;56.69;101103.91;2619768;89;21070;-92
2022/09/05 11:44:10;;;;;;;14.40;3.92;;;;;;;24.41;57.08;101103.81;2616339;89;21081;-90
2022/09/05 11:48:57;;;;;;;4.72;3.72;;;;;;;24.46;56.41;101094.00;2584289;89;21085;-91
2022/09/05 11:53:46;;;;;;;2.92;2.62;;;;;;;24.49;56.42;101100.93;2603767;89;21083;-92
2022/09/05 11:58:24;;;;;;;3.75;3.40;;;;;;;24.32;55.96;101095.78;2675967;86;21485;-92
2022/09/05 12:03:25;;;;;;;4.33;3.35;;;;;;;24.51;56.83;101093.41;2769907;83;21035;-92
2022/09/05 12:08:05;;;;;;;3.65;2.75;;;;;;;24.51;55.70;101089.33;2710992;86;21696;-92
2022/09/05 12:12:35;;;;;;;3.42;3.02;;;;;;;24.47;55.33;101091.63;2736404;85;21630;-92
2022/09/05 12:17:33;;;;;;;2.72;2.52;;;;;;;24.55;55.87;101086.53;2725447;86;21665;-91
2022/09/05 12:22:24;;;;;;;4.08;2.67;;;;;;;24.44;55.07;101090.64;2680692;86;21253;-92
2022/09/05 12:26:55;;;;;;;3.58;2.62;;;;;;;24.60;53.97;101083.22;2717247;86;21077;-93
2022/09/05 12:31:22;;;;;;;3.62;2.95;;;;;;;24.77;54.33;101085.97;2713467;86;21074;-92
2022/09/05 12:35:54;;;;;;;3.98;2.62;;;;;;;24.70;55.77;101080.14;2718267;86;21082;-91
2022/09/05 12:40:19;;;;;;;2.87;2.67;;;;;;;24.63;54.07;101080.95;2713211;86;21106;-92
2022/09/05 12:44:53;;;;;;;3.40;3.10;;;;;;;24.72;53.67;101068.53;2719775;86;21108;-92
2022/09/05 12:49:35;;;;;;;2.83;2.62;;;;;;;24.59;54.39;101064.72;2713528;86;21118;-93
2022/09/05 12:54:09;;;;;;;3.45;2.60;;;;;;;24.46;55.41;101062.73;2735548;85;21694;-90
2022/09/05 12:58:34;;;;;;;3.30;2.85;;;;;;;24.54;55.10;101056.30;2711815;86;21097;-91
2022/09/05 13:03:03;;;;;;;3.22;2.92;;;;;;;24.61;54.26;101061.78;2662745;87;21067;-93
2022/09/05 13:07:41;;;;;;;4.70;3.22;;;;;;;24.55;54.29;101062.05;2746263;85;21102;-93
2022/09/05 13:12:09;;;;;;;3.85;3.42;;;;;;;24.50;54.56;101057.74;2742776;85;21055;-92
2022/09/05 13:16:29;;;;;;;3.15;2.85;;;;;;;24.49;54.35;101058.28;2726471;85;21083;-91
2022/09/05 13:21:05;;;;;;;4.40;3.83;;;;;;;24.32;54.63;101059.09;2741070;85;21063;-92
2022/09/05 13:25:26;;;;;;;3.65;3.33;;;;;;;24.16;55.08;101047.16;2739220;85;21115;-89
2022/09/05 13:29:54;;;;;;;4.28;3.55;;;;;;;24.32;55.35;101050.94;2739955;86;21665;-94
2022/09/05 13:34:22;;;;;;;4.15;3.15;;;;;;;24.56;54.20;101046.05;2737926;85;21058;-95
2022/09/05 13:39:02;;;;;;;6.08;3.58;;;;;;;24.78;54.83;101037.86;2723987;87;21035;-92
2022/09/05 13:43:28;;;;;;;5.65;3.25;;;;;;;24.95;53.12;101037.80;2712204;85;20996;-94
2022/09/05 13:48:11;;;;;;;3.92;2.92;;;;;;;25.06;53.17;101028.23;2734336;85;21639;-92
2022/09/05 13:52:41;;;;;;;3.70;3.02;;;;;;;25.09;53.98;101026.97;2733053;84;21107;-93
2022/09/05 13:57:50;;;;;;;4.62;4.22;;;;;;;25.02;52.43;101024.76;2728652;85;21064;-94
2022/09/05 14:02:30;;;;;;;3.05;2.80;;;;;;;25.03;53.41;101019.63;2730978;86;21063;-93
2022/09/05 14:07:30;;;;;;;7.25;3.27;;;;;;;25.06;52.83;101024.66;2726285;85;21041;-92
2022/09/05 14:12:05;;;;;;;5.75;3.25;;;;;;;25.09;52.44;101016.08;2654578;87;21042;-92
2022/09/05 14:16:29;;;;;;;3.92;2.65;;;;;;;25.14;53.13;101004.05;2656453;88;21114;-92
2022/09/05 14:21:14;;;;;;;3.25;2.95;;;;;;;25.16;52.54;100992.46;2735993;87;21083;-93
2022/09/05 14:25:38;;;;;;;3.30;2.45;;;;;;;25.16;52.54;100992.46;2732331;85;21543;-93
2022/09/05 14:30:00;;;;;;;2.60;2.40;;;;;;;25.13;52.71;100990.13;2725716;85;21080;-93
2022/09/05 14:34:42;;;;;;;2.92;1.75;;;;;;;25.06;53.19;100996.94;2731986;85;21081;-95
2022/09/05 14:39:22;;;;;;;2.98;2.27;;;;;;;25.03;52.76;100996.50;2734660;85;21110;-94
2022/09/05 14:44:04;;;;;;;4.85;3.02;;;;;;;24.98;53.51;100990.84;2735078;86;21086;-95
2022/09/05 14:48:19;;;;;;;4.65;2.42;;;;;;;24.78;53.75;100988.35;2732375;85;21098;-93
2022/09/05 14:52:26;;;;;;;;;;;;;;;24.66;53.91;100988.06;2733422;87;21079;-88
2022/09/05 14:56:41;;;;;;;3.98;2.70;;;;;;;24.41;53.86;100991.80;2719319;85;20137;-85
2022/09/05 15:00:55;;;;;;;;;;;;;;;24.16;55.39;100994.16;2727326;85;21043;-85
2022/09/05 15:05:05;;;;;;;2.62;2.30;;;;;;;23.96;55.82;100992.11;2731701;85;20134;-86
2022/09/05 15:09:08;;;;;;;4.55;3.05;;;;;;;23.79;55.99;100991.06;2736971;85;21054;-86
2022/09/05 15:13:16;;;;;;;5.40;3.15;;;;;;;23.78;55.82;100989.89;2739843;85;21058;-86
2022/09/05 15:17:22;;;;;;;3.47;3.02;;;;;;;23.87;56.92;100991.41;2736049;85;21054;-86
2022/09/05 15:21:39;;;;;;;19.50;2.95;;;;;;;23.96;55.56;100990.75;2701214;87;21082;-86
2022/09/05 15:25:48;;;;;;;5.62;3.05;;;;;;;23.95;54.11;100982.28;2737115;85;21029;-85
2022/09/05 15:29:55;;;;;;;4.42;2.70;;;;;;;24.03;54.58;100978.10;2732014;85;21015;-85
2022/09/05 15:34:02;;;;;;;6.65;4.15;;;;;;;24.00;54.92;100981.19;2738498;85;21046;-85
2022/09/05 15:38:28;;;;;;;3.10;2.80;;;;;;;23.92;55.07;100988.11;2674608;87;21130;-86
2022/09/05 15:42:32;;;;;;;;;;;;;;;23.76;55.33;100980.57;2684809;87;21036;-85
2022/09/05 15:46:50;;;;;;;2.45;2.25;;;;;;;23.68;56.33;100978.86;2673490;87;20356;-85
2022/09/05 15:50:56;;;;;;;4.00;2.42;;;;;;;23.60;56.79;100985.77;2680300;87;21044;-85
2022/09/05 15:55:12;;;;;;;4.62;3.10;;;;;;;23.45;55.67;100990.42;2691391;86;21093;-85
2022/09/05 15:59:15;;;;;;;3.95;2.67;;;;;;;23.44;57.17;100984.17;2678851;87;21038;-86
2022/09/05 16:03:24;;;;;;;4.15;2.75;;;;;;;23.36;57.46;100977.50;2683648;87;21085;-86
2022/09/05 16:07:27;;;;;;;3.20;2.25;;;;;;;23.30;58.25;100976.42;2673031;87;21039;-86
2022/09/05 16:11:36;;;;;;;3.12;2.40;;;;;;;23.22;58.29;100976.00;2674327;87;21084;-88
2022/09/05 16:15:48;;;;;;;3.50;3.08;;;;;;;23.22;59.16;100975.15;2693411;87;21047;-90
2022/09/05 16:19:54;;;;;;;6.97;4.17;;;;;;;23.19;58.98;100970.97;2713149;86;21193;-90
2022/09/05 16:24:01;;;;;;;3.85;2.98;;;;;;;23.16;58.17;100968.61;2679770;87;21091;-95
2022/09/05 16:28:17;;;;;;;3.17;2.60;;;;;;;23.14;58.86;100963.89;2694981;86;21622;-94
2022/09/05 16:32:26;;;;;;;2.52;2.33;;;;;;;23.07;58.34;100961.64;2673922;87;21130;-94
2022/09/05 16:36:36;;;;;;;3.52;2.17;;;;;;;22.96;59.05;100957.56;2746967;84;21097;-93
2022/09/05 16:40:45;;;;;;;3.20;2.72;;;;;;;22.81;58.54;100955.72;2759017;84;21027;-93
2022/09/05 16:44:57;;;;;;;3.47;3.00;;;;;;;22.77;59.07;100953.57;2725706;85;21043;-94
2022/09/05 16:49:25;;;;;;;4.35;2.20;;;;;;;22.71;59.34;100946.21;2750092;84;21617;-95
2022/09/05 16:53:43;;;;;;;3.40;2.22;;;;;;;22.64;59.46;100951.05;2749417;84;21042;-95
2022/09/05 16:58:11;;;;;;;3.80;3.35;;;;;;;22.54;59.91;100949.13;2654886;87;21101;-95
2022/09/05 17:02:34;;;;;;;2.77;2.55;;;;;;;22.42;59.76;100952.80;2750398;84;21441;-93
2022/09/05 17:06:56;;;;;;;2.55;2.35;;;;;;;22.32;60.10;100954.98;2771553;84;21023;-94
2022/09/05 17:11:06;;;;;;;4.10;2.92;;;;;;;22.22;60.88;100954.73;2742823;85;21050;-95
2022/09/05 17:15:19;;;;;;;5.55;2.87;;;;;;;22.11;61.27;100951.15;2791959;84;21091;-92
2022/09/05 17:19:24;;;;;;;5.45;3.67;;;;;;;21.94;61.54;100947.75;2763254;84;21636;-94
2022/09/05 17:23:34;;;;;;;4.70;3.40;;;;;;;21.80;61.89;100954.30;2706951;84;21026;-95
2022/09/05 17:27:37;;;;;;;9.80;3.30;;;;;;;21.69;62.46;100956.12;2643965;87;21089;-95
2022/09/05 17:31:47;;;;;;;5.12;3.50;;;;;;;21.53;62.52;100950.31;2757625;84;21090;-94
2022/09/05 17:36:18;;;;;;;4.67;3.35;;;;;;;21.38;63.09;100951.59;2748881;84;21074;-94
2022/09/05 17:40:31;;;;;;;4.28;3.87;;;;;;;21.23;64.66;100954.25;2679249;85;21078;-95
2022/09/05 17:44:50;;;;;;;5.00;3.98;;;;;;;21.02;65.17;100949.48;2739509;84;20991;-93
2022/09/05 17:49:02;;;;;;;7.83;4.45;;;;;;;20.91;65.27;100961.05;2773230;83;21031;-95
2022/09/05 17:53:12;;;;;;;4.65;3.98;;;;;;;20.68;65.95;100951.00;2745064;85;21130;-93
2022/09/05 17:57:32;;;;;;;7.75;5.92;;;;;;;20.53;66.42;100955.45;2756587;85;21076;-93
2022/09/05 18:01:34;;;;;;;10.25;6.47;;;;;;;20.37;66.60;100955.84;2740369;85;21035;-91
2022/09/05 18:06:07;;;;;;;9.80;4.72;;;;;;;20.28;66.79;100958.26;2715193;86;21111;-95
2022/09/05 18:10:11;;;;;;;9.03;5.40;;;;;;;20.15;67.30;100961.50;2734963;86;21090;-95
2022/09/05 18:14:19;;;;;;;10.68;8.28;;;;;;;19.96;67.75;100960.01;2763558;85;21083;-95
2022/09/05 18:18:33;;;;;;;12.53;7.53;;;;;;;19.85;68.12;100969.27;2732361;85;21177;-95
2022/09/05 18:22:40;;;;;;;6.00;4.47;;;;;;;19.72;68.65;100972.98;2730026;86;21063;-91
2022/09/05 18:26:45;;;;;;;5.42;4.12;;;;;;;19.58;69.20;100974.52;2737322;85;21087;-96
2022/09/05 18:30:47;;;;;;;8.15;5.17;;;;;;;19.42;69.88;100976.19;2731883;86;21672;-94
2022/09/05 18:34:54;;;;;;;6.37;4.30;;;;;;;19.29;70.01;100970.46;2719214;85;21130;-95
2022/09/05 18:39:27;;;;;;;5.30;4.80;;;;;;;19.18;70.59;100975.16;2683192;86;21093;-96
2022/09/05 18:43:54;;;;;;;8.00;5.28;;;;;;;19.10;70.50;100975.15;2694669;86;21081;-95
2022/09/05 18:47:59;;;;;;;7.92;4.25;;;;;;;18.95;70.94;100974.40;2695426;87;21012;-95
2022/09/05 18:52:24;;;;;;;5.80;5.23;;;;;;;18.83;71.36;100978.39;2695468;87;21057;-95
2022/09/05 18:56:46;;;;;;;6.33;4.70;;;;;;;18.72;71.96;100976.02;2695815;88;21283;-95
2022/09/05 19:00:48;;;;;;;13.35;4.95;;;;;;;18.68;72.02;100977.69;2691664;86;21243;-93
2022/09/05 19:04:54;;;;;;;6.70;5.10;;;;;;;18.65;71.91;100984.73;2690254;87;21684;-94
2022/09/05 19:09:01;;;;;;;5.33;4.10;;;;;;;18.54;72.34;100989.07;2673742;86;21558;-93
2022/09/05 19:13:16;;;;;;;7.42;5.10;;;;;;;18.48;72.54;100989.73;2695352;86;21617;-95
2022/09/05 19:17:33;;;;;;;8.57;5.63;;;;;;;18.40;72.33;100994.56;2724155;85;21066;-94
2022/09/05 19:21:59;;;;;;;7.87;5.67;;;;;;;18.34;72.50;100996.05;2711521;87;21562;-92
2022/09/05 19:26:04;;;;;;;5.50;4.15;;;;;;;18.29;72.74;101005.11;2738432;85;21564;-90
2022/09/05 19:30:06;;;;;;;8.30;4.85;;;;;;;18.22;72.97;101002.69;2726340;85;21602;-90
2022/09/05 19:34:21;;;;;;;8.60;5.17;;;;;;;18.20;73.00;101000.66;2722707;84;21090;-90
2022/09/05 19:38:23;;;;;;;5.83;5.22;;;;;;;18.16;73.17;101001.47;2740382;85;21201;-91
2022/09/05 19:42:24;;;;;;;6.87;4.55;;;;;;;18.11;73.15;100997.93;2721168;85;21043;-91
2022/09/05 19:46:27;;;;;;;6.35;5.10;;;;;;;18.04;73.42;100992.81;2682271;86;21017;-90
2022/09/05 19:50:29;;;;;;;9.00;5.35;;;;;;;17.93;74.07;100995.23;2755326;84;21091;-87
2022/09/05 19:54:34;;;;;;;5.87;4.22;;;;;;;17.87;74.22;100993.66;2720537;85;22298;-87
2022/09/05 19:58:37;;;;;;;7.73;5.13;;;;;;;17.76;74.56;100988.89;2736856;84;21040;-88
2022/09/05 20:02:42;;;;;;;9.55;6.22;;;;;;;17.72;74.51;100986.66;2739081;85;21035;-88
2022/09/05 20:06:42;;;;;;;7.92;5.35;;;;;;;17.66;74.37;100984.95;2733973;85;21019;-88
2022/09/05 20:10:43;;;;;;;11.68;6.85;;;;;;;17.64;74.30;100978.88;2743821;86;21046;-88
2022/09/05 20:14:44;;;;;;;4.85;4.40;;;;;;;17.58;74.34;100975.95;2735846;85;21075;-89
2022/09/05 20:18:49;;;;;;;7.35;5.62;;;;;;;17.53;74.12;100969.20;2739060;85;21449;-89
2022/09/05 20:23:04;;;;;;;7.58;4.58;;;;;;;17.47;74.26;100972.49;2740747;85;21065;-89
2022/09/05 20:27:07;;;;;;;12.00;5.10;;;;;;;17.40;74.14;100971.43;2735915;86;21022;-88
2022/09/05 20:31:25;;;;;;;6.47;5.10;;;;;;;17.34;74.28;100977.44;2752221;84;21002;-88
2022/09/05 20:35:31;;;;;;;10.95;5.35;;;;;;;17.23;74.35;100970.44;2767537;84;21042;-89
2022/09/05 20:39:41;;;;;;;11.10;7.00;;;;;;;17.21;74.52;100972.44;2762572;84;20990;-90
2022/09/05 20:43:54;;;;;;;7.03;5.22;;;;;;;17.19;74.18;100974.41;2766849;85;21085;-89
2022/09/05 20:47:57;;;;;;;7.17;4.17;;;;;;;17.12;74.15;100972.34;2761382;84;21340;-88
2022/09/05 20:52:01;;;;;;;6.03;4.42;;;;;;;17.05;74.24;100968.58;2774750;84;21045;-90
2022/09/05 20:56:06;;;;;;;12.63;5.62;;;;;;;17.02;74.27;100968.03;2785319;84;21551;-90